sensor_id;sensor_type;location;lat;lon;timestamp;temperature;humidity
14093;DHT22;7123;49.468;10.992;2023-06-14T00:00:44;23.20;85.30
14093;DHT22;7123;49.468;10.992;2023-06-14T00:03:11;23.20;84.90
14093;DHT22;7123;49.468;10.992;2023-06-14T00:05:39;23.20;85.20
14093;DHT22;7123;49.468;10.992;2023-06-14T00:08:10;23.10;85.40
14093;DHT22;7123;49.468;10.992;2023-06-14T00:10:37;23.10;85.60
14093;DHT22;7123;49.468;10.992;2023-06-14T00:13:04;23.10;85.80
14093;DHT22;7123;49.468;10.992;2023-06-14T00:15:31;23.10;86.20
14093;DHT22;7123;49.468;10.992;2023-06-14T00:17:58;23.00;86.30
14093;DHT22;7123;49.468;10.992;2023-06-14T00:20:29;23.00;86.50
14093;DHT22;7123;49.468;10.992;2023-06-14T00:22:58;22.90;86.90
14093;DHT22;7123;49.468;10.992;2023-06-14T00:25:25;22.90;87.20
14093;DHT22;7123;49.468;10.992;2023-06-14T00:27:57;22.90;87.50
14093;DHT22;7123;49.468;10.992;2023-06-14T00:30:25;22.90;87.60
14093;DHT22;7123;49.468;10.992;2023-06-14T00:32:52;22.90;87.80
14093;DHT22;7123;49.468;10.992;2023-06-14T00:35:19;23.00;88.10
14093;DHT22;7123;49.468;10.992;2023-06-14T00:37:46;22.90;88.30
14093;DHT22;7123;49.468;10.992;2023-06-14T00:40:12;22.80;88.60
14093;DHT22;7123;49.468;10.992;2023-06-14T00:42:40;22.80;88.80
14093;DHT22;7123;49.468;10.992;2023-06-14T00:45:07;22.80;89.10
14093;DHT22;7123;49.468;10.992;2023-06-14T00:47:37;22.80;89.40
14093;DHT22;7123;49.468;10.992;2023-06-14T00:50:07;22.80;89.60
14093;DHT22;7123;49.468;10.992;2023-06-14T00:52:34;22.80;89.80
14093;DHT22;7123;49.468;10.992;2023-06-14T00:55:01;22.70;90.00
14093;DHT22;7123;49.468;10.992;2023-06-14T00:57:28;22.70;90.20
14093;DHT22;7123;49.468;10.992;2023-06-14T00:59:58;22.70;90.40
14093;DHT22;7123;49.468;10.992;2023-06-14T01:02:25;22.70;90.50
14093;DHT22;7123;49.468;10.992;2023-06-14T01:04:52;22.70;90.60
14093;DHT22;7123;49.468;10.992;2023-06-14T01:10:30;22.70;90.70
14093;DHT22;7123;49.468;10.992;2023-06-14T01:13:10;22.70;90.60
14093;DHT22;7123;49.468;10.992;2023-06-14T01:15:39;22.70;90.50
14093;DHT22;7123;49.468;10.992;2023-06-14T01:18:07;22.70;90.60
14093;DHT22;7123;49.468;10.992;2023-06-14T01:20:35;22.60;90.70
14093;DHT22;7123;49.468;10.992;2023-06-14T01:23:05;22.60;90.80
14093;DHT22;7123;49.468;10.992;2023-06-14T01:25:32;22.60;91.20
14093;DHT22;7123;49.468;10.992;2023-06-14T01:28:01;22.50;90.90
14093;DHT22;7123;49.468;10.992;2023-06-14T01:30:30;22.50;91.00
14093;DHT22;7123;49.468;10.992;2023-06-14T01:32:59;22.50;91.10
14093;DHT22;7123;49.468;10.992;2023-06-14T01:35:26;22.40;91.10
14093;DHT22;7123;49.468;10.992;2023-06-14T01:37:53;22.40;91.20
14093;DHT22;7123;49.468;10.992;2023-06-14T01:40:21;22.30;91.20
14093;DHT22;7123;49.468;10.992;2023-06-14T01:42:50;22.30;91.40
14093;DHT22;7123;49.468;10.992;2023-06-14T01:45:18;22.30;92.00
14093;DHT22;7123;49.468;10.992;2023-06-14T01:47:45;22.30;91.80
14093;DHT22;7123;49.468;10.992;2023-06-14T01:50:13;22.30;91.90
14093;DHT22;7123;49.468;10.992;2023-06-14T01:52:40;22.30;92.00
14093;DHT22;7123;49.468;10.992;2023-06-14T01:55:07;22.30;92.10
14093;DHT22;7123;49.468;10.992;2023-06-14T01:57:34;22.30;92.10
14093;DHT22;7123;49.468;10.992;2023-06-14T02:00:02;22.30;92.20
14093;DHT22;7123;49.468;10.992;2023-06-14T02:02:30;22.20;92.10
14093;DHT22;7123;49.468;10.992;2023-06-14T02:04:57;22.20;92.20
14093;DHT22;7123;49.468;10.992;2023-06-14T02:07:24;22.20;92.30
14093;DHT22;7123;49.468;10.992;2023-06-14T02:09:51;22.20;92.50
14093;DHT22;7123;49.468;10.992;2023-06-14T02:12:18;22.20;92.60
14093;DHT22;7123;49.468;10.992;2023-06-14T02:14:44;22.20;92.70
14093;DHT22;7123;49.468;10.992;2023-06-14T02:17:11;22.10;92.70
14093;DHT22;7123;49.468;10.992;2023-06-14T02:19:38;22.10;92.70
14093;DHT22;7123;49.468;10.992;2023-06-14T02:22:05;22.00;92.70
14093;DHT22;7123;49.468;10.992;2023-06-14T02:24:32;21.90;92.70
14093;DHT22;7123;49.468;10.992;2023-06-14T02:26:58;21.90;92.90
14093;DHT22;7123;49.468;10.992;2023-06-14T02:29:25;21.80;92.90
14093;DHT22;7123;49.468;10.992;2023-06-14T02:31:52;21.80;93.10
14093;DHT22;7123;49.468;10.992;2023-06-14T02:34:19;21.70;93.10
14093;DHT22;7123;49.468;10.992;2023-06-14T02:36:48;21.70;93.30
14093;DHT22;7123;49.468;10.992;2023-06-14T02:39:15;21.70;93.50
14093;DHT22;7123;49.468;10.992;2023-06-14T02:41:41;21.70;93.60
14093;DHT22;7123;49.468;10.992;2023-06-14T02:44:09;21.60;93.70
14093;DHT22;7123;49.468;10.992;2023-06-14T02:46:38;21.70;93.90
14093;DHT22;7123;49.468;10.992;2023-06-14T02:49:05;21.60;94.00
14093;DHT22;7123;49.468;10.992;2023-06-14T02:51:31;21.60;94.10
14093;DHT22;7123;49.468;10.992;2023-06-14T02:53:58;21.60;94.20
14093;DHT22;7123;49.468;10.992;2023-06-14T02:56:25;21.60;94.30
14093;DHT22;7123;49.468;10.992;2023-06-14T02:58:52;21.60;94.40
14093;DHT22;7123;49.468;10.992;2023-06-14T03:01:19;21.60;94.60
14093;DHT22;7123;49.468;10.992;2023-06-14T03:03:47;21.60;94.70
14093;DHT22;7123;49.468;10.992;2023-06-14T03:06:14;21.60;94.80
14093;DHT22;7123;49.468;10.992;2023-06-14T03:08:43;21.60;95.00
14093;DHT22;7123;49.468;10.992;2023-06-14T03:11:10;21.60;95.10
14093;DHT22;7123;49.468;10.992;2023-06-14T03:13:37;21.60;94.90
14093;DHT22;7123;49.468;10.992;2023-06-14T03:16:05;21.60;95.20
14093;DHT22;7123;49.468;10.992;2023-06-14T03:18:32;21.50;95.30
14093;DHT22;7123;49.468;10.992;2023-06-14T03:21:02;21.50;95.20
14093;DHT22;7123;49.468;10.992;2023-06-14T03:23:30;21.50;95.30
14093;DHT22;7123;49.468;10.992;2023-06-14T03:25:57;21.40;95.40
14093;DHT22;7123;49.468;10.992;2023-06-14T03:28:24;21.30;95.60
14093;DHT22;7123;49.468;10.992;2023-06-14T03:30:51;21.20;95.80
14093;DHT22;7123;49.468;10.992;2023-06-14T03:33:18;21.20;95.90
14093;DHT22;7123;49.468;10.992;2023-06-14T03:35:45;21.20;96.20
14093;DHT22;7123;49.468;10.992;2023-06-14T03:38:12;21.20;96.40
14093;DHT22;7123;49.468;10.992;2023-06-14T03:40:39;21.20;96.60
14093;DHT22;7123;49.468;10.992;2023-06-14T03:43:06;21.20;96.70
14093;DHT22;7123;49.468;10.992;2023-06-14T03:45:32;21.20;96.90
14093;DHT22;7123;49.468;10.992;2023-06-14T03:47:59;21.20;97.10
14093;DHT22;7123;49.468;10.992;2023-06-14T03:50:27;21.20;97.20
14093;DHT22;7123;49.468;10.992;2023-06-14T03:52:54;21.10;97.30
14093;DHT22;7123;49.468;10.992;2023-06-14T03:55:21;21.20;97.30
14093;DHT22;7123;49.468;10.992;2023-06-14T03:58:11;21.20;97.40
14093;DHT22;7123;49.468;10.992;2023-06-14T04:00:39;21.10;97.50
14093;DHT22;7123;49.468;10.992;2023-06-14T04:03:06;21.10;97.60
14093;DHT22;7123;49.468;10.992;2023-06-14T04:05:33;21.20;97.60
14093;DHT22;7123;49.468;10.992;2023-06-14T04:08:00;21.10;97.80
14093;DHT22;7123;49.468;10.992;2023-06-14T04:10:27;21.10;98.00
14093;DHT22;7123;49.468;10.992;2023-06-14T04:12:54;21.10;98.10
14093;DHT22;7123;49.468;10.992;2023-06-14T04:15:21;21.10;98.30
14093;DHT22;7123;49.468;10.992;2023-06-14T04:17:48;21.10;98.40
14093;DHT22;7123;49.468;10.992;2023-06-14T04:20:15;21.00;98.60
14093;DHT22;7123;49.468;10.992;2023-06-14T04:22:43;21.10;98.80
14093;DHT22;7123;49.468;10.992;2023-06-14T04:25:10;21.00;99.00
14093;DHT22;7123;49.468;10.992;2023-06-14T04:27:38;20.90;99.00
14093;DHT22;7123;49.468;10.992;2023-06-14T04:30:05;20.90;99.10
14093;DHT22;7123;49.468;10.992;2023-06-14T04:32:32;20.90;99.30
14093;DHT22;7123;49.468;10.992;2023-06-14T04:35:07;21.00;99.30
14093;DHT22;7123;49.468;10.992;2023-06-14T04:37:34;20.90;99.60
14093;DHT22;7123;49.468;10.992;2023-06-14T04:40:01;20.90;99.70
14093;DHT22;7123;49.468;10.992;2023-06-14T04:42:29;20.90;99.80
14093;DHT22;7123;49.468;10.992;2023-06-14T04:44:57;20.90;99.90
14093;DHT22;7123;49.468;10.992;2023-06-14T04:47:24;20.90;99.90
14093;DHT22;7123;49.468;10.992;2023-06-14T04:49:59;20.90;99.90
14093;DHT22;7123;49.468;10.992;2023-06-14T04:52:27;20.90;99.90
14093;DHT22;7123;49.468;10.992;2023-06-14T04:54:56;20.90;99.90
14093;DHT22;7123;49.468;10.992;2023-06-14T04:57:23;20.90;99.90
14093;DHT22;7123;49.468;10.992;2023-06-14T04:59:51;20.90;99.90
14093;DHT22;7123;49.468;10.992;2023-06-14T05:02:22;20.90;99.90
14093;DHT22;7123;49.468;10.992;2023-06-14T05:04:50;20.90;99.90
14093;DHT22;7123;49.468;10.992;2023-06-14T05:07:17;20.90;99.90
14093;DHT22;7123;49.468;10.992;2023-06-14T05:09:45;20.90;99.90
14093;DHT22;7123;49.468;10.992;2023-06-14T05:12:12;20.90;99.90
14093;DHT22;7123;49.468;10.992;2023-06-14T05:14:39;20.90;99.90
14093;DHT22;7123;49.468;10.992;2023-06-14T05:17:06;21.00;99.90
14093;DHT22;7123;49.468;10.992;2023-06-14T05:19:33;21.00;99.90
14093;DHT22;7123;49.468;10.992;2023-06-14T05:22:00;21.10;99.90
14093;DHT22;7123;49.468;10.992;2023-06-14T05:24:27;21.10;99.90
14093;DHT22;7123;49.468;10.992;2023-06-14T05:26:56;21.10;99.90
14093;DHT22;7123;49.468;10.992;2023-06-14T05:29:22;21.10;99.90
14093;DHT22;7123;49.468;10.992;2023-06-14T05:31:49;21.10;99.90
14093;DHT22;7123;49.468;10.992;2023-06-14T05:34:16;21.10;99.90
14093;DHT22;7123;49.468;10.992;2023-06-14T05:36:43;21.30;99.90
14093;DHT22;7123;49.468;10.992;2023-06-14T05:39:10;21.20;99.90
14093;DHT22;7123;49.468;10.992;2023-06-14T05:41:36;21.30;99.90
14093;DHT22;7123;49.468;10.992;2023-06-14T05:44:03;21.20;99.90
14093;DHT22;7123;49.468;10.992;2023-06-14T05:46:30;21.20;99.90
14093;DHT22;7123;49.468;10.992;2023-06-14T05:48:57;21.20;99.90
14093;DHT22;7123;49.468;10.992;2023-06-14T05:51:24;21.20;99.90
14093;DHT22;7123;49.468;10.992;2023-06-14T05:53:54;21.20;99.90
14093;DHT22;7123;49.468;10.992;2023-06-14T05:56:21;21.20;99.90
14093;DHT22;7123;49.468;10.992;2023-06-14T05:58:48;21.30;99.90
14093;DHT22;7123;49.468;10.992;2023-06-14T06:01:15;21.30;99.90
14093;DHT22;7123;49.468;10.992;2023-06-14T06:03:42;21.30;99.90
14093;DHT22;7123;49.468;10.992;2023-06-14T06:06:13;21.30;99.90
14093;DHT22;7123;49.468;10.992;2023-06-14T06:08:41;21.30;99.90
14093;DHT22;7123;49.468;10.992;2023-06-14T06:11:08;21.40;99.90
14093;DHT22;7123;49.468;10.992;2023-06-14T06:13:35;21.40;99.90
14093;DHT22;7123;49.468;10.992;2023-06-14T06:16:03;21.40;99.90
14093;DHT22;7123;49.468;10.992;2023-06-14T06:18:30;21.40;99.90
14093;DHT22;7123;49.468;10.992;2023-06-14T06:21:00;21.40;99.90
14093;DHT22;7123;49.468;10.992;2023-06-14T06:23:27;21.40;99.90
14093;DHT22;7123;49.468;10.992;2023-06-14T06:25:54;21.40;99.90
14093;DHT22;7123;49.468;10.992;2023-06-14T06:28:20;21.40;99.90
14093;DHT22;7123;49.468;10.992;2023-06-14T06:30:47;21.40;99.90
14093;DHT22;7123;49.468;10.992;2023-06-14T06:33:14;21.40;99.90
14093;DHT22;7123;49.468;10.992;2023-06-14T06:35:41;21.40;99.90
14093;DHT22;7123;49.468;10.992;2023-06-14T06:38:09;21.50;99.90
14093;DHT22;7123;49.468;10.992;2023-06-14T06:40:36;21.40;99.90
14093;DHT22;7123;49.468;10.992;2023-06-14T06:43:03;21.40;99.90
14093;DHT22;7123;49.468;10.992;2023-06-14T06:45:30;21.40;99.90
14093;DHT22;7123;49.468;10.992;2023-06-14T06:47:57;21.40;99.90
14093;DHT22;7123;49.468;10.992;2023-06-14T06:50:24;21.30;99.90
14093;DHT22;7123;49.468;10.992;2023-06-14T06:52:51;21.30;99.90
14093;DHT22;7123;49.468;10.992;2023-06-14T06:55:20;21.40;99.90
14093;DHT22;7123;49.468;10.992;2023-06-14T06:57:47;21.30;99.90
14093;DHT22;7123;49.468;10.992;2023-06-14T07:00:14;21.30;99.90
14093;DHT22;7123;49.468;10.992;2023-06-14T07:02:42;21.20;99.90
14093;DHT22;7123;49.468;10.992;2023-06-14T07:05:09;21.20;99.90
14093;DHT22;7123;49.468;10.992;2023-06-14T07:07:36;21.20;99.90
14093;DHT22;7123;49.468;10.992;2023-06-14T07:10:03;21.20;99.90
14093;DHT22;7123;49.468;10.992;2023-06-14T07:12:31;21.20;99.90
14093;DHT22;7123;49.468;10.992;2023-06-14T07:15:01;21.30;99.90
14093;DHT22;7123;49.468;10.992;2023-06-14T07:17:27;21.40;99.90
14093;DHT22;7123;49.468;10.992;2023-06-14T07:19:54;21.40;99.90
14093;DHT22;7123;49.468;10.992;2023-06-14T07:22:21;21.40;99.90
14093;DHT22;7123;49.468;10.992;2023-06-14T07:24:48;21.40;99.90
14093;DHT22;7123;49.468;10.992;2023-06-14T07:27:14;21.40;99.90
14093;DHT22;7123;49.468;10.992;2023-06-14T07:29:41;21.50;99.90
14093;DHT22;7123;49.468;10.992;2023-06-14T07:32:08;21.40;99.90
14093;DHT22;7123;49.468;10.992;2023-06-14T07:34:35;21.40;99.90
14093;DHT22;7123;49.468;10.992;2023-06-14T07:37:02;21.50;99.90
14093;DHT22;7123;49.468;10.992;2023-06-14T07:39:28;21.50;99.90
14093;DHT22;7123;49.468;10.992;2023-06-14T07:41:56;21.60;99.90
14093;DHT22;7123;49.468;10.992;2023-06-14T07:44:23;21.60;99.90
14093;DHT22;7123;49.468;10.992;2023-06-14T07:46:50;21.70;99.90
14093;DHT22;7123;49.468;10.992;2023-06-14T07:49:17;21.70;99.90
14093;DHT22;7123;49.468;10.992;2023-06-14T07:51:44;21.80;99.90
14093;DHT22;7123;49.468;10.992;2023-06-14T07:54:11;21.70;99.90
14093;DHT22;7123;49.468;10.992;2023-06-14T07:56:38;21.70;99.90
14093;DHT22;7123;49.468;10.992;2023-06-14T07:59:06;21.70;99.90
14093;DHT22;7123;49.468;10.992;2023-06-14T08:01:34;21.70;99.90
14093;DHT22;7123;49.468;10.992;2023-06-14T08:04:01;21.70;99.90
14093;DHT22;7123;49.468;10.992;2023-06-14T08:06:28;21.60;99.90
14093;DHT22;7123;49.468;10.992;2023-06-14T08:08:55;21.60;99.90
14093;DHT22;7123;49.468;10.992;2023-06-14T08:11:22;21.60;99.90
14093;DHT22;7123;49.468;10.992;2023-06-14T08:13:50;21.50;99.90
14093;DHT22;7123;49.468;10.992;2023-06-14T08:16:17;21.50;99.90
14093;DHT22;7123;49.468;10.992;2023-06-14T08:18:44;21.50;99.90
14093;DHT22;7123;49.468;10.992;2023-06-14T08:21:11;21.50;99.90
14093;DHT22;7123;49.468;10.992;2023-06-14T08:23:38;21.50;99.90
14093;DHT22;7123;49.468;10.992;2023-06-14T08:26:05;21.50;99.90
14093;DHT22;7123;49.468;10.992;2023-06-14T08:28:32;21.60;99.90
14093;DHT22;7123;49.468;10.992;2023-06-14T08:30:58;21.70;99.90
14093;DHT22;7123;49.468;10.992;2023-06-14T08:33:25;21.70;99.90
14093;DHT22;7123;49.468;10.992;2023-06-14T08:35:53;21.70;99.90
14093;DHT22;7123;49.468;10.992;2023-06-14T08:38:20;21.80;99.90
14093;DHT22;7123;49.468;10.992;2023-06-14T08:40:50;21.80;99.90
14093;DHT22;7123;49.468;10.992;2023-06-14T08:43:18;21.70;99.90
14093;DHT22;7123;49.468;10.992;2023-06-14T08:45:46;21.80;99.90
14093;DHT22;7123;49.468;10.992;2023-06-14T08:48:13;21.80;99.90
14093;DHT22;7123;49.468;10.992;2023-06-14T08:50:45;21.80;99.90
14093;DHT22;7123;49.468;10.992;2023-06-14T08:53:14;21.90;99.90
14093;DHT22;7123;49.468;10.992;2023-06-14T08:55:43;21.90;99.90
14093;DHT22;7123;49.468;10.992;2023-06-14T08:58:10;21.90;99.90
14093;DHT22;7123;49.468;10.992;2023-06-14T09:00:42;21.90;99.90
14093;DHT22;7123;49.468;10.992;2023-06-14T09:03:09;21.90;99.90
14093;DHT22;7123;49.468;10.992;2023-06-14T09:05:40;21.90;99.90
14093;DHT22;7123;49.468;10.992;2023-06-14T09:08:08;22.00;99.90
14093;DHT22;7123;49.468;10.992;2023-06-14T09:10:40;22.00;99.90
14093;DHT22;7123;49.468;10.992;2023-06-14T09:13:07;21.90;99.90
14093;DHT22;7123;49.468;10.992;2023-06-14T09:15:34;21.90;99.90
14093;DHT22;7123;49.468;10.992;2023-06-14T09:18:02;21.90;99.90
14093;DHT22;7123;49.468;10.992;2023-06-14T09:20:30;21.90;99.90
14093;DHT22;7123;49.468;10.992;2023-06-14T09:22:58;22.00;99.90
14093;DHT22;7123;49.468;10.992;2023-06-14T09:25:25;22.00;99.90
14093;DHT22;7123;49.468;10.992;2023-06-14T09:28:08;22.10;99.90
14093;DHT22;7123;49.468;10.992;2023-06-14T09:30:39;22.20;99.90
14093;DHT22;7123;49.468;10.992;2023-06-14T09:33:06;22.30;99.90
14093;DHT22;7123;49.468;10.992;2023-06-14T09:35:33;22.30;99.90
14093;DHT22;7123;49.468;10.992;2023-06-14T09:38:00;22.20;99.90
14093;DHT22;7123;49.468;10.992;2023-06-14T09:40:27;22.10;99.90
14093;DHT22;7123;49.468;10.992;2023-06-14T09:42:55;22.10;99.90
14093;DHT22;7123;49.468;10.992;2023-06-14T09:45:25;22.10;99.90
14093;DHT22;7123;49.468;10.992;2023-06-14T09:47:57;22.10;99.90
14093;DHT22;7123;49.468;10.992;2023-06-14T09:50:34;22.10;99.90
14093;DHT22;7123;49.468;10.992;2023-06-14T09:53:11;22.20;99.90
14093;DHT22;7123;49.468;10.992;2023-06-14T09:55:41;22.10;99.90
14093;DHT22;7123;49.468;10.992;2023-06-14T09:58:10;22.20;99.90
14093;DHT22;7123;49.468;10.992;2023-06-14T10:00:37;22.30;99.90
14093;DHT22;7123;49.468;10.992;2023-06-14T10:03:13;22.30;99.90
14093;DHT22;7123;49.468;10.992;2023-06-14T10:05:45;22.40;99.90
14093;DHT22;7123;49.468;10.992;2023-06-14T10:08:14;22.40;99.90
14093;DHT22;7123;49.468;10.992;2023-06-14T10:10:43;22.40;99.90
14093;DHT22;7123;49.468;10.992;2023-06-14T10:13:11;22.40;99.90
14093;DHT22;7123;49.468;10.992;2023-06-14T10:23:46;22.30;99.90
14093;DHT22;7123;49.468;10.992;2023-06-14T10:26:23;22.30;99.90
14093;DHT22;7123;49.468;10.992;2023-06-14T10:29:07;22.30;99.90
14093;DHT22;7123;49.468;10.992;2023-06-14T10:31:45;22.30;99.90
14093;DHT22;7123;49.468;10.992;2023-06-14T10:34:30;22.30;99.90
14093;DHT22;7123;49.468;10.992;2023-06-14T10:37:04;22.40;99.90
14093;DHT22;7123;49.468;10.992;2023-06-14T10:39:38;22.60;99.90
14093;DHT22;7123;49.468;10.992;2023-06-14T10:42:05;22.60;99.90
14093;DHT22;7123;49.468;10.992;2023-06-14T10:44:37;22.60;99.90
14093;DHT22;7123;49.468;10.992;2023-06-14T10:47:10;22.70;99.90
14093;DHT22;7123;49.468;10.992;2023-06-14T10:49:42;22.70;99.90
14093;DHT22;7123;49.468;10.992;2023-06-14T10:52:14;22.70;99.30
14093;DHT22;7123;49.468;10.992;2023-06-14T10:57:53;22.70;98.80
14093;DHT22;7123;49.468;10.992;2023-06-14T11:00:25;22.70;98.50
14093;DHT22;7123;49.468;10.992;2023-06-14T11:11:13;22.80;97.20
14093;DHT22;7123;49.468;10.992;2023-06-14T11:13:43;22.90;97.30
14093;DHT22;7123;49.468;10.992;2023-06-14T11:16:14;23.00;96.50
14093;DHT22;7123;49.468;10.992;2023-06-14T11:18:42;22.90;96.20
14093;DHT22;7123;49.468;10.992;2023-06-14T11:21:10;23.00;96.10
14093;DHT22;7123;49.468;10.992;2023-06-14T11:23:37;23.00;95.80
14093;DHT22;7123;49.468;10.992;2023-06-14T11:26:04;23.00;95.60
14093;DHT22;7123;49.468;10.992;2023-06-14T11:28:38;23.10;95.30
14093;DHT22;7123;49.468;10.992;2023-06-14T11:31:05;23.20;95.50
14093;DHT22;7123;49.468;10.992;2023-06-14T11:33:33;23.30;95.50
14093;DHT22;7123;49.468;10.992;2023-06-14T11:36:05;23.30;95.40
14093;DHT22;7123;49.468;10.992;2023-06-14T11:38:35;23.40;95.60
14093;DHT22;7123;49.468;10.992;2023-06-14T11:41:03;23.40;96.30
14093;DHT22;7123;49.468;10.992;2023-06-14T11:43:31;23.30;96.40
14093;DHT22;7123;49.468;10.992;2023-06-14T11:46:00;23.20;96.50
14093;DHT22;7123;49.468;10.992;2023-06-14T11:48:52;23.10;96.50
14093;DHT22;7123;49.468;10.992;2023-06-14T11:51:19;23.10;96.70
14093;DHT22;7123;49.468;10.992;2023-06-14T11:53:49;23.10;96.80
14093;DHT22;7123;49.468;10.992;2023-06-14T11:56:16;23.00;96.90
14093;DHT22;7123;49.468;10.992;2023-06-14T11:58:44;23.00;97.00
14093;DHT22;7123;49.468;10.992;2023-06-14T12:01:17;23.00;96.90
14093;DHT22;7123;49.468;10.992;2023-06-14T12:03:48;23.00;96.90
14093;DHT22;7123;49.468;10.992;2023-06-14T12:06:16;23.10;96.60
14093;DHT22;7123;49.468;10.992;2023-06-14T12:08:55;23.10;96.60
14093;DHT22;7123;49.468;10.992;2023-06-14T12:11:22;23.10;96.50
14093;DHT22;7123;49.468;10.992;2023-06-14T12:13:49;23.10;96.50
14093;DHT22;7123;49.468;10.992;2023-06-14T12:16:16;23.10;96.50
14093;DHT22;7123;49.468;10.992;2023-06-14T12:18:43;23.20;96.40
14093;DHT22;7123;49.468;10.992;2023-06-14T12:21:10;23.20;96.20
14093;DHT22;7123;49.468;10.992;2023-06-14T12:23:48;23.20;96.00
14093;DHT22;7123;49.468;10.992;2023-06-14T12:26:15;23.20;95.80
14093;DHT22;7123;49.468;10.992;2023-06-14T12:28:44;23.30;95.90
14093;DHT22;7123;49.468;10.992;2023-06-14T12:31:12;23.30;95.50
14093;DHT22;7123;49.468;10.992;2023-06-14T12:33:40;23.40;95.50
14093;DHT22;7123;49.468;10.992;2023-06-14T12:36:08;23.50;95.50
14093;DHT22;7123;49.468;10.992;2023-06-14T12:38:37;23.60;95.30
14093;DHT22;7123;49.468;10.992;2023-06-14T12:41:04;23.80;95.20
14093;DHT22;7123;49.468;10.992;2023-06-14T12:43:31;23.90;95.10
14093;DHT22;7123;49.468;10.992;2023-06-14T12:45:58;24.00;94.90
14093;DHT22;7123;49.468;10.992;2023-06-14T12:48:25;24.10;94.70
14093;DHT22;7123;49.468;10.992;2023-06-14T12:50:53;24.10;94.50
14093;DHT22;7123;49.468;10.992;2023-06-14T12:53:20;24.00;94.30
14093;DHT22;7123;49.468;10.992;2023-06-14T12:55:47;23.90;94.10
14093;DHT22;7123;49.468;10.992;2023-06-14T12:58:14;23.80;94.00
14093;DHT22;7123;49.468;10.992;2023-06-14T13:00:43;23.70;93.30
14093;DHT22;7123;49.468;10.992;2023-06-14T13:03:10;23.60;93.10
14093;DHT22;7123;49.468;10.992;2023-06-14T13:05:37;23.60;93.30
14093;DHT22;7123;49.468;10.992;2023-06-14T13:08:07;23.60;93.40
14093;DHT22;7123;49.468;10.992;2023-06-14T13:10:37;23.50;93.50
14093;DHT22;7123;49.468;10.992;2023-06-14T13:13:04;23.50;93.60
14093;DHT22;7123;49.468;10.992;2023-06-14T13:15:31;23.50;93.60
14093;DHT22;7123;49.468;10.992;2023-06-14T13:17:58;23.50;93.60
14093;DHT22;7123;49.468;10.992;2023-06-14T13:20:25;23.50;93.70
14093;DHT22;7123;49.468;10.992;2023-06-14T13:22:51;23.60;93.60
14093;DHT22;7123;49.468;10.992;2023-06-14T13:25:18;23.60;93.60
14093;DHT22;7123;49.468;10.992;2023-06-14T13:27:45;23.60;93.70
14093;DHT22;7123;49.468;10.992;2023-06-14T13:30:12;23.70;93.70
14093;DHT22;7123;49.468;10.992;2023-06-14T13:32:39;23.80;93.60
14093;DHT22;7123;49.468;10.992;2023-06-14T13:35:06;23.80;93.60
14093;DHT22;7123;49.468;10.992;2023-06-14T13:37:33;23.80;93.40
14093;DHT22;7123;49.468;10.992;2023-06-14T13:40:00;23.80;93.30
14093;DHT22;7123;49.468;10.992;2023-06-14T13:42:27;23.90;93.20
14093;DHT22;7123;49.468;10.992;2023-06-14T13:44:55;23.90;93.20
14093;DHT22;7123;49.468;10.992;2023-06-14T13:47:22;23.90;93.30
14093;DHT22;7123;49.468;10.992;2023-06-14T13:49:49;23.90;93.60
14093;DHT22;7123;49.468;10.992;2023-06-14T13:52:15;23.80;93.50
14093;DHT22;7123;49.468;10.992;2023-06-14T13:54:42;23.70;93.60
14093;DHT22;7123;49.468;10.992;2023-06-14T13:57:11;23.80;93.60
14093;DHT22;7123;49.468;10.992;2023-06-14T13:59:40;23.80;93.30
14093;DHT22;7123;49.468;10.992;2023-06-14T14:02:07;23.60;93.70
14093;DHT22;7123;49.468;10.992;2023-06-14T14:04:34;23.70;93.40
14093;DHT22;7123;49.468;10.992;2023-06-14T14:07:05;23.80;93.10
14093;DHT22;7123;49.468;10.992;2023-06-14T14:09:33;23.90;93.00
14093;DHT22;7123;49.468;10.992;2023-06-14T14:12:01;23.90;92.70
14093;DHT22;7123;49.468;10.992;2023-06-14T14:14:34;23.80;92.80
14093;DHT22;7123;49.468;10.992;2023-06-14T14:17:00;23.80;92.60
14093;DHT22;7123;49.468;10.992;2023-06-14T14:19:27;23.90;92.40
14093;DHT22;7123;49.468;10.992;2023-06-14T14:21:54;23.80;92.30
14093;DHT22;7123;49.468;10.992;2023-06-14T14:24:21;23.90;92.50
14093;DHT22;7123;49.468;10.992;2023-06-14T14:26:48;24.00;92.50
14093;DHT22;7123;49.468;10.992;2023-06-14T14:29:16;24.10;92.50
14093;DHT22;7123;49.468;10.992;2023-06-14T14:31:43;24.20;92.50
14093;DHT22;7123;49.468;10.992;2023-06-14T14:34:10;24.30;92.30
14093;DHT22;7123;49.468;10.992;2023-06-14T14:36:37;24.40;92.20
14093;DHT22;7123;49.468;10.992;2023-06-14T14:39:08;24.50;92.30
14093;DHT22;7123;49.468;10.992;2023-06-14T14:41:35;24.50;92.40
14093;DHT22;7123;49.468;10.992;2023-06-14T14:44:02;24.40;92.30
14093;DHT22;7123;49.468;10.992;2023-06-14T14:46:29;24.40;92.40
14093;DHT22;7123;49.468;10.992;2023-06-14T14:48:56;24.50;92.20
14093;DHT22;7123;49.468;10.992;2023-06-14T14:51:24;24.60;91.90
14093;DHT22;7123;49.468;10.992;2023-06-14T14:53:51;24.70;91.70
14093;DHT22;7123;49.468;10.992;2023-06-14T14:56:23;24.80;91.50
14093;DHT22;7123;49.468;10.992;2023-06-14T14:58:50;24.90;91.40
14093;DHT22;7123;49.468;10.992;2023-06-14T15:01:17;25.00;91.00
14093;DHT22;7123;49.468;10.992;2023-06-14T15:03:45;25.10;90.30
14093;DHT22;7123;49.468;10.992;2023-06-14T15:06:14;25.20;90.30
14093;DHT22;7123;49.468;10.992;2023-06-14T15:08:41;25.20;89.60
14093;DHT22;7123;49.468;10.992;2023-06-14T15:11:08;25.20;89.00
14093;DHT22;7123;49.468;10.992;2023-06-14T15:13:35;25.10;88.90
14093;DHT22;7123;49.468;10.992;2023-06-14T15:16:02;25.00;88.70
14093;DHT22;7123;49.468;10.992;2023-06-14T15:18:28;25.00;88.60
14093;DHT22;7123;49.468;10.992;2023-06-14T15:20:55;25.00;88.60
14093;DHT22;7123;49.468;10.992;2023-06-14T15:23:22;25.00;88.40
14093;DHT22;7123;49.468;10.992;2023-06-14T15:25:49;25.20;87.00
14093;DHT22;7123;49.468;10.992;2023-06-14T15:28:16;25.40;86.60
14093;DHT22;7123;49.468;10.992;2023-06-14T15:30:42;25.40;86.60
14093;DHT22;7123;49.468;10.992;2023-06-14T15:33:09;25.40;87.10
14093;DHT22;7123;49.468;10.992;2023-06-14T15:35:36;25.30;87.30
14093;DHT22;7123;49.468;10.992;2023-06-14T15:38:06;25.30;87.20
14093;DHT22;7123;49.468;10.992;2023-06-14T15:40:33;25.40;87.40
14093;DHT22;7123;49.468;10.992;2023-06-14T15:43:00;25.60;87.10
14093;DHT22;7123;49.468;10.992;2023-06-14T15:45:27;25.90;86.00
14093;DHT22;7123;49.468;10.992;2023-06-14T15:47:53;26.20;85.10
14093;DHT22;7123;49.468;10.992;2023-06-14T15:50:21;26.30;84.10
14093;DHT22;7123;49.468;10.992;2023-06-14T15:52:50;26.30;83.80
14093;DHT22;7123;49.468;10.992;2023-06-14T15:55:18;26.20;83.60
14093;DHT22;7123;49.468;10.992;2023-06-14T15:57:45;26.30;83.10